createdAt,value
2023-02-22T00:00:50.117Z,100868.34
2023-02-22T00:03:24.948Z,100868.31
2023-02-22T00:05:58.282Z,100879.53
2023-02-22T00:08:30.356Z,100861.38
2023-02-22T00:10:58.521Z,100869.19
2023-02-22T00:13:29.568Z,100857.03
2023-02-22T00:15:58.096Z,100856.19
2023-02-22T00:18:27.969Z,100849.31
2023-02-22T00:20:59.837Z,100852.78
2023-02-22T00:23:30.122Z,100846.78
2023-02-22T00:25:59.513Z,100841.56
2023-02-22T00:28:30.642Z,100842.44
2023-02-22T00:30:59.871Z,100841.56
2023-02-22T00:33:27.951Z,100840.69
2023-02-22T00:35:55.798Z,100837.16
2023-02-22T00:38:23.961Z,100838.03
2023-02-22T00:40:52.437Z,100838.06
2023-02-22T00:43:20.344Z,100840.66
2023-02-22T00:45:50.420Z,100828.53
2023-02-22T00:48:19.519Z,100834.53
2023-02-22T00:50:49.236Z,100830.28
2023-02-22T00:53:17.747Z,100825.09
2023-02-22T00:55:45.647Z,100834.66
2023-02-22T00:58:13.667Z,100819.06
2023-02-22T01:00:43.741Z,100825.09
2023-02-22T01:03:15.018Z,100817.31
2023-02-22T01:05:43.933Z,100817.31
2023-02-22T01:08:13.604Z,100816.50
2023-02-22T01:10:41.688Z,100815.63
2023-02-22T01:13:12.225Z,100811.28
2023-02-22T01:15:41.850Z,100801.75
2023-02-22T01:18:12.594Z,100799.09
2023-02-22T01:20:40.701Z,100806.03
2023-02-22T01:23:10.621Z,100802.56
2023-02-22T01:25:38.803Z,100798.22
2023-02-22T01:28:09.873Z,100791.28
2023-02-22T01:30:38.321Z,100799.97
2023-02-22T01:33:08.564Z,100795.56
2023-02-22T01:35:40.802Z,100785.25
2023-02-22T01:38:09.552Z,100790.38
2023-02-22T01:40:39.683Z,100783.38
2023-02-22T01:43:20.126Z,100781.66
2023-02-22T01:45:58.268Z,100785.13
2023-02-22T01:48:35.680Z,100775.56
2023-02-22T01:51:10.774Z,100774.75
2023-02-22T01:53:46.065Z,100780.78
2023-02-22T01:56:16.166Z,100771.25
2023-02-22T01:58:50.612Z,100772.09
2023-02-22T02:01:21.392Z,100768.69
2023-02-22T02:03:50.494Z,100776.44
2023-02-22T02:06:20.559Z,100770.34
2023-02-22T02:08:56.054Z,100775.53
2023-02-22T02:11:25.977Z,100778.13
2023-02-22T02:13:57.162Z,100772.00
2023-02-22T02:16:27.506Z,100769.44
2023-02-22T02:18:55.974Z,100754.72
2023-02-22T02:21:49.841Z,100755.56
2023-02-22T02:25:05.065Z,100748.66
2023-02-22T02:27:48.618Z,100757.31
2023-02-22T02:30:46.982Z,100756.44
2023-02-22T02:33:22.114Z,100746.03
2023-02-22T02:35:58.663Z,100748.66
2023-02-22T02:38:35.273Z,100747.81
2023-02-22T02:41:10.745Z,100756.34
2023-02-22T02:43:43.867Z,100742.53
2023-02-22T02:46:16.724Z,100746.88
2023-02-22T02:48:54.701Z,100742.50
2023-02-22T02:51:28.718Z,100740.78
2023-02-22T02:53:57.777Z,100744.25
2023-02-22T02:56:25.905Z,100737.31
2023-02-22T02:58:55.625Z,100725.16
2023-02-22T03:01:40.854Z,100739.81
2023-02-22T03:04:24.468Z,100729.50
2023-02-22T03:07:08.731Z,100735.53
2023-02-22T03:09:49.057Z,100730.28
2023-02-22T03:12:29.263Z,100731.16
2023-02-22T03:15:09.858Z,100729.41
2023-02-22T03:17:46.767Z,100724.28
2023-02-22T03:20:23.511Z,100726.88
2023-02-22T03:22:59.396Z,100726.88
2023-02-22T03:25:30.593Z,100725.09
2023-02-22T03:28:04.631Z,100730.25
2023-02-22T03:30:39.291Z,100730.22
2023-02-22T03:33:15.612Z,100720.72
2023-02-22T03:35:49.511Z,100721.59
2023-02-22T03:38:21.391Z,100722.38
2023-02-22T03:40:52.377Z,100724.94
2023-02-22T03:43:26.166Z,100726.59
2023-02-22T03:45:59.470Z,100713.72
2023-02-22T03:48:37.363Z,100718.81
2023-02-22T03:51:08.459Z,100717.94
2023-02-22T03:53:37.415Z,100719.63
2023-02-22T03:56:10.498Z,100709.31
2023-02-22T03:58:40.633Z,100713.53
2023-02-22T04:01:08.707Z,100714.44
2023-02-22T04:03:36.522Z,100712.72
2023-02-22T04:06:05.278Z,100717.84
2023-02-22T04:08:35.233Z,100723.00
2023-02-22T04:11:03.685Z,100722.94
2023-02-22T04:13:32.431Z,100722.06
2023-02-22T04:16:00.817Z,100728.94
2023-02-22T04:18:28.719Z,100727.19
2023-02-22T04:20:57.124Z,100717.59
2023-02-22T04:23:37.084Z,100712.41
2023-02-22T04:26:05.924Z,100709.84
2023-02-22T04:28:34.002Z,100707.22
2023-02-22T04:31:14.763Z,100710.69
2023-02-22T04:33:42.912Z,100704.63
2023-02-22T04:36:16.004Z,100696.84
2023-02-22T04:38:46.281Z,100701.09
2023-02-22T04:41:14.782Z,100701.06
2023-02-22T04:43:42.891Z,100692.44
2023-02-22T04:46:29.523Z,100695.00
2023-02-22T04:48:58.706Z,100698.44
2023-02-22T04:51:29.747Z,100703.47
2023-02-22T04:54:02.871Z,100708.59
2023-02-22T04:56:33.120Z,100696.53
2023-02-22T04:59:01.075Z,100699.16
2023-02-22T05:01:33.572Z,100697.44
2023-02-22T05:04:04.027Z,100695.69
2023-02-22T05:06:32.132Z,100696.53
2023-02-22T05:09:00.028Z,100684.50
2023-02-22T05:11:29.278Z,100683.66
2023-02-22T05:13:57.336Z,100679.34
2023-02-22T05:16:25.333Z,100669.00
2023-02-22T05:18:53.424Z,100676.72
2023-02-22T05:21:21.415Z,100682.78
2023-02-22T05:23:49.423Z,100683.66
2023-02-22T05:26:17.452Z,100676.75
2023-02-22T05:28:46.727Z,100680.22
2023-02-22T05:31:14.835Z,100668.97
2023-02-22T05:33:43.080Z,100681.91
2023-02-22T05:36:11.489Z,100679.38
2023-02-22T05:38:43.243Z,100672.41
2023-02-22T05:41:12.370Z,100668.09
2023-02-22T05:43:40.520Z,100662.06
2023-02-22T05:46:09.912Z,100665.50
2023-02-22T05:48:39.343Z,100660.34
2023-02-22T05:51:09.648Z,100669.84
2023-02-22T05:53:37.872Z,100655.16
2023-02-22T05:56:06.467Z,100660.34
2023-02-22T05:58:34.386Z,100654.38
2023-02-22T06:01:03.432Z,100657.78
2023-02-22T06:03:32.905Z,100662.16
2023-02-22T06:06:00.816Z,100657.78
2023-02-22T06:08:28.667Z,100656.06
2023-02-22T06:10:56.562Z,100656.94
2023-02-22T06:13:24.408Z,100652.63
2023-02-22T06:15:52.261Z,100648.34
2023-02-22T06:18:20.392Z,100650.03
2023-02-22T06:20:50.845Z,100643.16
2023-02-22T06:23:18.935Z,100637.09
2023-02-22T06:25:46.834Z,100644.91
2023-02-22T06:28:15.657Z,100645.81
2023-02-22T06:30:43.773Z,100637.22
2023-02-22T06:33:12.328Z,100635.47
2023-02-22T06:35:40.289Z,100634.69
2023-02-22T06:38:10.147Z,100645.94
2023-02-22T06:40:38.031Z,100647.69
2023-02-22T06:43:06.006Z,100638.19
2023-02-22T06:45:33.973Z,100650.28
2023-02-22T06:48:01.825Z,100634.78
2023-02-22T06:50:31.634Z,100643.47
2023-02-22T06:53:00.068Z,100646.91
2023-02-22T06:55:31.645Z,100645.25
2023-02-22T06:58:00.045Z,100645.28
2023-02-22T07:00:30.002Z,100647.03
2023-02-22T07:02:59.251Z,100651.38
2023-02-22T07:05:28.771Z,100654.03
2023-02-22T07:08:03.475Z,100656.66
2023-02-22T07:10:33.935Z,100659.28
2023-02-22T07:13:02.268Z,100648.09
2023-02-22T07:15:32.590Z,100648.97
2023-02-22T07:18:00.855Z,100654.25
2023-02-22T07:20:31.013Z,100652.53
2023-02-22T07:22:58.868Z,100662.94
2023-02-22T07:25:27.241Z,100657.84
2023-02-22T07:27:56.556Z,100646.59
2023-02-22T07:30:27.988Z,100641.47
2023-02-22T07:32:56.500Z,100648.44
2023-02-22T07:35:26.625Z,100646.75
2023-02-22T07:37:55.955Z,100645.03
2023-02-22T07:40:25.361Z,100653.72
2023-02-22T07:42:57.138Z,100645.94
2023-02-22T07:45:26.620Z,100645.03
2023-02-22T07:47:55.139Z,100639.94
2023-02-22T07:50:27.488Z,100644.28
2023-02-22T07:52:58.298Z,100637.44
2023-02-22T07:55:28.292Z,100639.13
2023-02-22T07:57:59.677Z,100636.56
2023-02-22T08:00:29.618Z,100635.72
2023-02-22T08:02:57.995Z,100636.59
2023-02-22T08:05:27.979Z,100628.84
2023-02-22T08:07:55.813Z,100629.75
2023-02-22T08:10:25.596Z,100625.44
2023-02-22T08:12:54.341Z,100626.28
2023-02-22T08:15:28.462Z,100627.16
2023-02-22T08:17:57.387Z,100634.94
2023-02-22T08:20:25.740Z,100624.59
2023-02-22T08:22:54.010Z,100622.84
2023-02-22T08:25:25.283Z,100618.50
2023-02-22T08:27:58.629Z,100617.66
2023-02-22T08:30:29.111Z,100610.66
2023-02-22T08:32:58.097Z,100612.38
2023-02-22T08:35:27.493Z,100604.56
2023-02-22T08:37:58.556Z,100609.72
2023-02-22T08:40:29.222Z,100602.75
2023-02-22T08:42:57.086Z,100612.16
2023-02-22T08:45:25.257Z,100611.22
2023-02-22T08:47:54.503Z,100606.09
2023-02-22T08:50:24.593Z,100599.88
2023-02-22T08:52:53.213Z,100597.34
2023-02-22T08:55:22.505Z,100599.03
2023-02-22T08:57:51.805Z,100594.63
2023-02-22T09:02:48.921Z,100593.53
2023-02-22T09:05:18.341Z,100595.91
2023-02-22T09:07:46.549Z,100591.28
2023-02-22T09:10:17.825Z,100588.72
2023-02-22T09:12:45.764Z,100581.00
2023-02-22T09:15:13.913Z,100578.19
2023-02-22T09:17:41.863Z,100576.28
2023-02-22T09:20:12.291Z,100575.94
2023-02-22T09:22:41.815Z,100579.22
2023-02-22T09:25:16.757Z,100568.72
2023-02-22T09:27:45.179Z,100577.53
2023-02-22T09:30:19.180Z,100572.97
2023-02-22T09:32:47.348Z,100574.59
2023-02-22T09:35:15.393Z,100576.03
2023-02-22T09:37:45.226Z,100570.28
2023-02-22T09:40:24.823Z,100569.72
2023-02-22T09:43:04.878Z,100561.44
2023-02-22T09:45:38.794Z,100559.31
2023-02-22T09:48:21.262Z,100562.28
2023-02-22T09:50:52.525Z,100559.53
2023-02-22T09:53:30.308Z,100554.06
2023-02-22T09:56:03.515Z,100555.00
2023-02-22T09:58:34.384Z,100565.50
2023-02-22T10:01:19.837Z,100560.44
2023-02-22T10:03:54.502Z,100556.03
2023-02-22T10:06:25.585Z,100561.50
2023-02-22T10:09:00.916Z,100560.22
2023-02-22T10:11:42.602Z,100559.31
2023-02-22T10:14:30.746Z,100556.41
2023-02-22T10:17:06.210Z,100557.91
2023-02-22T10:19:39.529Z,100550.34
2023-02-22T10:22:37.286Z,100558.59
2023-02-22T10:25:13.758Z,100553.31
2023-02-22T10:27:47.839Z,100555.28
2023-02-22T10:30:24.907Z,100549.59
2023-02-22T10:32:59.737Z,100544.88
2023-02-22T10:35:30.876Z,100535.66
2023-02-22T10:38:05.340Z,100531.84
2023-02-22T10:40:34.740Z,100527.28
2023-02-22T10:43:04.960Z,100533.72
2023-02-22T10:45:35.854Z,100520.59
2023-02-22T10:48:11.484Z,100522.97
2023-02-22T10:50:41.496Z,100525.50
2023-02-22T10:53:10.529Z,100525.06
2023-02-22T10:56:10.142Z,100525.28
2023-02-22T10:58:47.950Z,100518.59
2023-02-22T11:01:26.177Z,100522.97
2023-02-22T11:03:59.153Z,100515.97
2023-02-22T11:06:27.470Z,100506.44
2023-02-22T11:09:06.485Z,100522.19
2023-02-22T11:11:35.813Z,100509.13
2023-02-22T11:14:06.602Z,100501.69
2023-02-22T11:16:38.249Z,100507.25
2023-02-22T11:19:14.075Z,100496.47
2023-02-22T11:21:42.384Z,100495.00
2023-02-22T11:24:12.637Z,100491.72
2023-02-22T11:26:45.060Z,100488.97
2023-02-22T11:29:21.307Z,100482.94
2023-02-22T11:31:50.351Z,100486.75
2023-02-22T11:34:31.518Z,100477.81
2023-02-22T11:37:17.712Z,100474.47
2023-02-22T11:39:46.654Z,100468.91
2023-02-22T11:42:27.608Z,100471.22
2023-02-22T11:45:10.923Z,100467.38
2023-02-22T11:47:49.413Z,100460.03
2023-02-22T11:50:28.879Z,100464.97
2023-02-22T11:53:10.135Z,100449.28
2023-02-22T11:55:46.847Z,100453.66
2023-02-22T11:58:34.318Z,100453.31
2023-02-22T12:01:10.087Z,100450.81
2023-02-22T12:04:16.102Z,100442.31
2023-02-22T12:06:52.008Z,100446.72
2023-02-22T12:09:27.301Z,100445.75
2023-02-22T12:12:07.516Z,100441.03
2023-02-22T12:14:45.065Z,100442.09
2023-02-22T12:17:24.490Z,100444.47
2023-02-22T12:19:58.761Z,100434.97
2023-02-22T12:22:30.591Z,100440.34
2023-02-22T12:25:09.484Z,100430.81
2023-02-22T12:27:42.870Z,100429.50
2023-02-22T12:30:19.191Z,100443.84
2023-02-22T12:32:51.853Z,100437.03
2023-02-22T12:35:24.690Z,100441.97
2023-02-22T12:38:01.826Z,100442.19
2023-02-22T12:40:36.536Z,100429.03
2023-02-22T12:43:11.935Z,100432.94
2023-02-22T12:45:44.208Z,100438.81
2023-02-22T12:48:27.381Z,100427.22
2023-02-22T12:50:59.260Z,100427.28
2023-02-22T12:53:32.353Z,100428.81
2023-02-22T12:56:16.668Z,100429.31
2023-02-22T12:58:50.819Z,100428.19
2023-02-22T13:01:23.757Z,100426.75
2023-02-22T13:03:51.829Z,100422.19
2023-02-22T13:06:31.207Z,100425.44
2023-02-22T13:09:11.298Z,100425.91
2023-02-22T13:11:44.724Z,100430.09
2023-02-22T13:14:30.081Z,100422.06
2023-02-22T13:17:06.990Z,100428.38
2023-02-22T13:19:44.141Z,100417.19
2023-02-22T13:22:20.082Z,100422.66
2023-02-22T13:24:59.619Z,100415.72
2023-02-22T13:27:33.020Z,100419.03
2023-02-22T13:30:02.515Z,100415.63
2023-02-22T13:32:47.970Z,100412.63
2023-02-22T13:35:27.464Z,100414.41
2023-02-22T13:38:16.618Z,100411.13
2023-02-22T13:41:12.858Z,100403.72
2023-02-22T13:44:07.947Z,100406.81
2023-02-22T13:46:50.819Z,100409.72
2023-02-22T13:49:48.164Z,100401.00
2023-02-22T13:52:21.215Z,100408.31
2023-02-22T13:54:54.551Z,100411.97
2023-02-22T13:57:25.761Z,100407.69
2023-02-22T14:00:24.415Z,100403.69
2023-02-22T14:03:06.808Z,100397.75
2023-02-22T14:05:50.947Z,100409.91
2023-02-22T14:08:43.791Z,100406.75
2023-02-22T14:11:57.248Z,100405.69
2023-02-22T14:14:25.772Z,100403.25
2023-02-22T14:17:23.903Z,100406.22
2023-02-22T14:20:20.860Z,100403.53
2023-02-22T14:22:53.163Z,100398.50
2023-02-22T14:25:37.479Z,100400.72
2023-02-22T14:28:07.599Z,100400.94
2023-02-22T14:30:38.864Z,100395.22
2023-02-22T14:33:42.070Z,100396.31
2023-02-22T14:36:11.284Z,100390.88
2023-02-22T14:38:41.961Z,100388.63
2023-02-22T14:41:10.275Z,100393.19
2023-02-22T14:43:39.977Z,100393.59
2023-02-22T14:46:13.600Z,100398.06
2023-02-22T14:48:42.980Z,100397.13
2023-02-22T14:51:21.937Z,100398.47
2023-02-22T14:53:55.045Z,100391.41
2023-02-22T14:56:26.303Z,100396.22
2023-02-22T14:59:00.228Z,100391.09
2023-02-22T15:01:47.342Z,100387.03
2023-02-22T15:04:23.030Z,100379.44
2023-02-22T15:06:51.571Z,100390.66
2023-02-22T15:09:27.658Z,100397.47
2023-02-22T15:12:14.709Z,100393.81
2023-02-22T15:14:47.571Z,100394.38
2023-02-22T15:17:20.845Z,100393.53
2023-02-22T15:19:50.079Z,100386.25
2023-02-22T15:22:23.577Z,100387.50
2023-02-22T15:25:00.283Z,100392.94
2023-02-22T15:27:29.263Z,100389.22
2023-02-22T15:30:04.391Z,100389.03
2023-02-22T15:32:36.275Z,100398.31
2023-02-22T15:35:16.516Z,100397.19
2023-02-22T15:37:45.492Z,100404.22
2023-02-22T15:40:20.878Z,100399.31
2023-02-22T15:42:50.397Z,100399.13
2023-02-22T15:45:21.028Z,100399.63
2023-02-22T15:47:50.852Z,100401.41
2023-02-22T15:50:23.661Z,100395.09
2023-02-22T15:52:57.994Z,100404.28
2023-02-22T15:55:30.834Z,100406.88
2023-02-22T15:58:02.230Z,100409.53
2023-02-22T16:00:36.935Z,100410.66
2023-02-22T16:03:06.167Z,100410.78
2023-02-22T16:05:40.200Z,100417.91
2023-02-22T16:08:16.690Z,100415.53
2023-02-22T16:10:54.279Z,100411.19
2023-02-22T16:13:32.960Z,100406.03
2023-02-22T16:16:03.125Z,100414.75
2023-02-22T16:18:34.399Z,100417.28
2023-02-22T16:21:08.060Z,100411.75
2023-02-22T16:23:45.854Z,100412.16
2023-02-22T16:26:28.636Z,100410.31
2023-02-22T16:28:58.890Z,100417.53
2023-02-22T16:31:28.538Z,100416.63
2023-02-22T16:33:56.550Z,100415.66
2023-02-22T16:36:38.686Z,100422.69
2023-02-22T16:39:08.395Z,100421.94
2023-02-22T16:41:37.723Z,100425.75
2023-02-22T16:44:07.654Z,100425.09
2023-02-22T16:46:36.660Z,100435.00
2023-02-22T16:49:05.017Z,100429.09
2023-02-22T16:51:39.799Z,100432.91
2023-02-22T16:54:12.408Z,100437.09
2023-02-22T16:56:42.480Z,100441.69
2023-02-22T16:59:15.006Z,100443.56
2023-02-22T17:01:43.442Z,100439.00
2023-02-22T17:04:15.859Z,100444.44
2023-02-22T17:06:44.116Z,100445.59
2023-02-22T17:09:11.971Z,100443.38
2023-02-22T17:11:41.365Z,100448.19
2023-02-22T17:14:09.701Z,100455.09
2023-02-22T17:16:37.970Z,100454.25
2023-02-22T17:19:11.258Z,100447.22
2023-02-22T17:21:40.164Z,100451.66
2023-02-22T17:24:08.140Z,100450.84
2023-02-22T17:26:37.111Z,100457.13
2023-02-22T17:29:06.429Z,100452.09
2023-02-22T17:31:34.978Z,100454.75
2023-02-22T17:34:04.985Z,100457.38
2023-02-22T17:36:34.210Z,100455.81
2023-02-22T17:39:02.970Z,100454.38
2023-02-22T17:41:30.886Z,100456.38
2023-02-22T17:43:59.049Z,100466.03
2023-02-22T17:46:28.293Z,100461.81
2023-02-22T17:48:56.177Z,100463.81
2023-02-22T17:51:26.253Z,100462.97
2023-02-22T17:53:54.344Z,100470.84
2023-02-22T17:56:22.667Z,100476.91
2023-02-22T17:58:54.099Z,100480.56
2023-02-22T18:01:27.108Z,100483.47
2023-02-22T18:03:58.573Z,100473.88
2023-02-22T18:06:28.569Z,100473.19
2023-02-22T18:08:57.860Z,100476.75
2023-02-22T18:11:27.494Z,100473.28
2023-02-22T18:13:55.869Z,100486.38
2023-02-22T18:16:25.461Z,100480.38
2023-02-22T18:18:54.680Z,100476.19
2023-02-22T18:21:26.690Z,100479.75
2023-02-22T18:23:55.168Z,100465.78
2023-02-22T18:26:25.320Z,100481.53
2023-02-22T18:28:54.070Z,100478.97
2023-02-22T18:31:23.465Z,100480.91
2023-02-22T18:33:53.327Z,100479.25
2023-02-22T18:36:23.778Z,100478.16
2023-02-22T18:38:54.138Z,100480.28
2023-02-22T18:41:25.631Z,100483.03
2023-02-22T18:43:55.184Z,100487.47
2023-02-22T18:46:25.205Z,100481.28
2023-02-22T18:48:55.488Z,100473.34
2023-02-22T18:51:25.716Z,100477.69
2023-02-22T18:53:59.734Z,100480.38
2023-02-22T18:56:30.118Z,100479.59
2023-02-22T18:59:01.053Z,100479.72
2023-02-22T19:01:29.699Z,100477.22
2023-02-22T19:03:57.542Z,100473.75
2023-02-22T19:06:26.847Z,100479.28
2023-02-22T19:08:54.711Z,100480.09
2023-02-22T19:11:24.517Z,100488.16
2023-02-22T19:13:55.670Z,100492.47
2023-02-22T19:16:25.243Z,100481.91
2023-02-22T19:18:57.289Z,100490.44
2023-02-22T19:21:28.538Z,100492.06
2023-02-22T19:24:01.299Z,100493.00
2023-02-22T19:26:30.125Z,100493.72
2023-02-22T19:28:59.998Z,100489.31
2023-02-22T19:31:31.554Z,100493.66
2023-02-22T19:34:01.886Z,100494.50
2023-02-22T19:36:31.438Z,100490.88
2023-02-22T19:39:01.558Z,100487.38
2023-02-22T19:41:30.201Z,100491.72
2023-02-22T19:43:58.814Z,100484.63
2023-02-22T19:46:26.875Z,100495.09
2023-02-22T19:48:56.399Z,100492.47
2023-02-22T19:51:29.363Z,100493.44
2023-02-22T19:53:59.952Z,100496.84
2023-02-22T19:56:28.437Z,100493.34
2023-02-22T19:58:58.278Z,100502.88
2023-02-22T20:01:29.117Z,100496.75
2023-02-22T20:03:59.904Z,100497.63
2023-02-22T20:06:31.981Z,100511.84
2023-02-22T20:09:02.528Z,100510.94
2023-02-22T20:11:30.457Z,100510.91
2023-02-22T20:13:58.345Z,100516.25
2023-02-22T20:16:26.880Z,100513.66
2023-02-22T20:18:56.013Z,100519.75
2023-02-22T20:21:30.716Z,100513.63
2023-02-22T20:23:59.346Z,100517.16
2023-02-22T20:26:31.021Z,100525.06
2023-02-22T20:29:00.310Z,100517.34
2023-02-22T20:31:29.571Z,100518.22
2023-02-22T20:33:59.831Z,100511.28
2023-02-22T20:36:28.511Z,100521.75
2023-02-22T20:38:58.513Z,100518.59
2023-02-22T20:41:29.903Z,100514.25
2023-02-22T20:43:58.301Z,100518.53
2023-02-22T20:46:28.260Z,100524.56
2023-02-22T20:48:57.036Z,100523.63
2023-02-22T20:51:25.496Z,100530.59
2023-02-22T20:53:54.139Z,100525.50
2023-02-22T20:56:24.681Z,100531.75
2023-02-22T20:58:53.991Z,100529.16
2023-02-22T21:01:22.535Z,100527.59
2023-02-22T21:03:51.464Z,100537.06
2023-02-22T21:06:21.680Z,100527.41
2023-02-22T21:09:21.907Z,100531.84
2023-02-22T21:11:50.411Z,100532.91
2023-02-22T21:14:20.223Z,100526.81
2023-02-22T21:16:49.581Z,100532.03
2023-02-22T21:19:25.502Z,100526.22
2023-02-22T21:21:55.912Z,100531.47
2023-02-22T21:24:24.549Z,100533.22
2023-02-22T21:26:53.030Z,100537.53
2023-02-22T21:29:44.227Z,100532.25
2023-02-22T21:32:13.737Z,100533.53
2023-02-22T21:34:42.028Z,100544.13
2023-02-22T21:37:09.882Z,100534.47
2023-02-22T21:39:38.777Z,100538.81
2023-02-22T21:42:07.306Z,100537.03
2023-02-22T21:44:35.273Z,100541.50
2023-02-22T21:47:04.474Z,100538.88
2023-02-22T21:49:32.370Z,100537.97
2023-02-22T21:52:00.270Z,100539.84
2023-02-22T21:54:28.742Z,100547.06
2023-02-22T21:56:56.717Z,100548.72
2023-02-22T21:59:24.830Z,100546.94
2023-02-22T22:01:55.820Z,100547.75
2023-02-22T22:04:27.945Z,100555.53
2023-02-22T22:06:57.663Z,100554.78
2023-02-22T22:09:29.103Z,100551.34
2023-02-22T22:11:59.083Z,100556.56
2023-02-22T22:14:28.101Z,100556.56
2023-02-22T22:16:58.672Z,100555.59
2023-02-22T22:19:29.118Z,100552.22
2023-02-22T22:21:57.453Z,100548.94
2023-02-22T22:24:25.599Z,100547.25
2023-02-22T22:26:55.338Z,100551.66
2023-02-22T22:29:24.612Z,100555.91
2023-02-22T22:31:52.936Z,100550.78
2023-02-22T22:34:24.283Z,100550.78
2023-02-22T22:36:53.579Z,100542.06
2023-02-22T22:39:21.647Z,100549.25
2023-02-22T22:41:49.594Z,100550.09
2023-02-22T22:44:22.091Z,100550.06
2023-02-22T22:46:53.513Z,100542.16
2023-02-22T22:49:23.530Z,100550.03
2023-02-22T22:51:53.470Z,100547.38
2023-02-22T22:54:21.653Z,100550.25
2023-02-22T22:56:49.540Z,100548.63
2023-02-22T22:59:17.959Z,100547.63
2023-02-22T23:01:45.899Z,100546.78
2023-02-22T23:04:16.831Z,100546.00
2023-02-22T23:06:46.634Z,100557.34
2023-02-22T23:09:18.958Z,100552.09
2023-02-22T23:11:50.573Z,100552.09
2023-02-22T23:14:21.275Z,100546.94
2023-02-22T23:16:50.134Z,100545.25
2023-02-22T23:19:19.155Z,100546.06
2023-02-22T23:21:47.913Z,100553.03
2023-02-22T23:24:20.867Z,100555.59
2023-02-22T23:26:49.478Z,100551.28
2023-02-22T23:29:18.951Z,100553.97
2023-02-22T23:31:48.354Z,100551.53
2023-02-22T23:34:17.178Z,100551.56
2023-02-22T23:36:45.152Z,100552.38
2023-02-22T23:39:14.212Z,100556.78
2023-02-22T23:41:43.808Z,100557.72
2023-02-22T23:44:17.585Z,100561.09
2023-02-22T23:46:48.203Z,100561.97
2023-02-22T23:49:20.053Z,100558.59
2023-02-22T23:51:48.209Z,100561.19
2023-02-22T23:54:19.205Z,100568.13
2023-02-22T23:56:56.318Z,100565.50
2023-02-22T23:59:26.012Z,100556.84
